sensor_id;sensor_type;location;lat;lon;timestamp;temperature;humidity
18898;DHT22;9581;49.484;8.556;2022-11-04T00:01:58;12.00;99.90
18898;DHT22;9581;49.484;8.556;2022-11-04T00:04:27;12.10;99.90
18898;DHT22;9581;49.484;8.556;2022-11-04T00:06:55;12.10;99.90
18898;DHT22;9581;49.484;8.556;2022-11-04T00:09:25;12.00;99.90
18898;DHT22;9581;49.484;8.556;2022-11-04T00:11:52;12.00;99.90
18898;DHT22;9581;49.484;8.556;2022-11-04T00:14:37;11.90;99.90
18898;DHT22;9581;49.484;8.556;2022-11-04T00:17:04;12.00;99.90
18898;DHT22;9581;49.484;8.556;2022-11-04T00:19:49;12.10;99.90
18898;DHT22;9581;49.484;8.556;2022-11-04T00:22:34;12.30;99.90
18898;DHT22;9581;49.484;8.556;2022-11-04T00:25:18;12.30;99.90
18898;DHT22;9581;49.484;8.556;2022-11-04T00:28:05;12.40;99.90
18898;DHT22;9581;49.484;8.556;2022-11-04T00:30:53;12.40;99.90
18898;DHT22;9581;49.484;8.556;2022-11-04T00:33:20;12.50;99.90
18898;DHT22;9581;49.484;8.556;2022-11-04T00:35:54;12.20;99.90
18898;DHT22;9581;49.484;8.556;2022-11-04T00:38:22;12.10;99.90
18898;DHT22;9581;49.484;8.556;2022-11-04T00:40:49;11.90;99.90
18898;DHT22;9581;49.484;8.556;2022-11-04T00:43:16;11.80;99.90
18898;DHT22;9581;49.484;8.556;2022-11-04T00:45:43;11.70;99.90
18898;DHT22;9581;49.484;8.556;2022-11-04T00:48:10;11.70;99.90
18898;DHT22;9581;49.484;8.556;2022-11-04T00:50:36;11.90;99.90
18898;DHT22;9581;49.484;8.556;2022-11-04T00:53:05;12.00;99.90
18898;DHT22;9581;49.484;8.556;2022-11-04T00:55:32;12.10;99.90
18898;DHT22;9581;49.484;8.556;2022-11-04T00:57:58;12.20;99.90
18898;DHT22;9581;49.484;8.556;2022-11-04T01:00:25;12.30;99.90
18898;DHT22;9581;49.484;8.556;2022-11-04T01:02:52;12.30;99.90
18898;DHT22;9581;49.484;8.556;2022-11-04T01:05:19;12.10;99.90
18898;DHT22;9581;49.484;8.556;2022-11-04T01:07:46;12.00;99.90
18898;DHT22;9581;49.484;8.556;2022-11-04T01:10:14;11.90;99.90
18898;DHT22;9581;49.484;8.556;2022-11-04T01:12:41;11.90;99.90
18898;DHT22;9581;49.484;8.556;2022-11-04T01:15:08;11.90;99.90
18898;DHT22;9581;49.484;8.556;2022-11-04T01:17:35;11.80;99.90
18898;DHT22;9581;49.484;8.556;2022-11-04T01:20:02;12.00;99.90
18898;DHT22;9581;49.484;8.556;2022-11-04T01:22:29;12.00;99.90
18898;DHT22;9581;49.484;8.556;2022-11-04T01:24:56;12.10;99.90
18898;DHT22;9581;49.484;8.556;2022-11-04T01:27:24;12.20;99.90
18898;DHT22;9581;49.484;8.556;2022-11-04T01:29:51;12.30;99.90
18898;DHT22;9581;49.484;8.556;2022-11-04T01:32:17;12.10;99.90
18898;DHT22;9581;49.484;8.556;2022-11-04T01:34:45;12.30;99.90
18898;DHT22;9581;49.484;8.556;2022-11-04T01:37:12;12.20;99.90
18898;DHT22;9581;49.484;8.556;2022-11-04T01:39:39;11.80;99.90
18898;DHT22;9581;49.484;8.556;2022-11-04T01:42:05;11.80;99.90
18898;DHT22;9581;49.484;8.556;2022-11-04T01:44:49;11.90;99.90
18898;DHT22;9581;49.484;8.556;2022-11-04T01:47:18;11.80;99.90
18898;DHT22;9581;49.484;8.556;2022-11-04T01:49:48;11.80;99.90
18898;DHT22;9581;49.484;8.556;2022-11-04T01:52:19;11.80;99.90
18898;DHT22;9581;49.484;8.556;2022-11-04T01:54:50;11.70;99.90
18898;DHT22;9581;49.484;8.556;2022-11-04T01:57:20;11.90;99.90
18898;DHT22;9581;49.484;8.556;2022-11-04T01:59:50;11.80;99.90
18898;DHT22;9581;49.484;8.556;2022-11-04T02:02:17;11.80;99.90
18898;DHT22;9581;49.484;8.556;2022-11-04T02:04:44;11.80;99.90
18898;DHT22;9581;49.484;8.556;2022-11-04T02:07:11;11.70;99.90
18898;DHT22;9581;49.484;8.556;2022-11-04T02:09:39;11.60;99.90
18898;DHT22;9581;49.484;8.556;2022-11-04T02:12:06;11.70;99.90
18898;DHT22;9581;49.484;8.556;2022-11-04T02:14:53;11.70;99.90
18898;DHT22;9581;49.484;8.556;2022-11-04T02:17:36;11.80;99.90
18898;DHT22;9581;49.484;8.556;2022-11-04T02:20:27;11.70;99.90
18898;DHT22;9581;49.484;8.556;2022-11-04T02:26:27;11.60;99.90
18898;DHT22;9581;49.484;8.556;2022-11-04T02:29:14;11.60;99.90
18898;DHT22;9581;49.484;8.556;2022-11-04T02:31:50;11.80;99.90
18898;DHT22;9581;49.484;8.556;2022-11-04T02:34:22;11.60;99.90
18898;DHT22;9581;49.484;8.556;2022-11-04T02:36:58;11.70;99.90
18898;DHT22;9581;49.484;8.556;2022-11-04T02:39:34;11.70;99.90
18898;DHT22;9581;49.484;8.556;2022-11-04T02:42:10;11.60;99.90
18898;DHT22;9581;49.484;8.556;2022-11-04T02:44:43;11.60;99.90
18898;DHT22;9581;49.484;8.556;2022-11-04T02:47:14;11.60;99.90
18898;DHT22;9581;49.484;8.556;2022-11-04T02:49:46;11.60;99.90
18898;DHT22;9581;49.484;8.556;2022-11-04T02:52:19;11.50;99.90
18898;DHT22;9581;49.484;8.556;2022-11-04T02:54:53;11.60;99.90
18898;DHT22;9581;49.484;8.556;2022-11-04T02:57:24;11.50;99.90
18898;DHT22;9581;49.484;8.556;2022-11-04T02:59:56;11.40;99.90
18898;DHT22;9581;49.484;8.556;2022-11-04T03:02:27;11.40;99.90
18898;DHT22;9581;49.484;8.556;2022-11-04T03:04:56;11.40;99.90
18898;DHT22;9581;49.484;8.556;2022-11-04T03:07:27;11.40;99.90
18898;DHT22;9581;49.484;8.556;2022-11-04T03:09:58;11.40;99.90
18898;DHT22;9581;49.484;8.556;2022-11-04T03:12:29;11.50;99.90
18898;DHT22;9581;49.484;8.556;2022-11-04T03:15:01;11.50;99.90
18898;DHT22;9581;49.484;8.556;2022-11-04T03:17:33;11.60;99.90
18898;DHT22;9581;49.484;8.556;2022-11-04T03:20:06;11.50;99.90
18898;DHT22;9581;49.484;8.556;2022-11-04T03:22:35;11.60;99.90
18898;DHT22;9581;49.484;8.556;2022-11-04T03:25:03;11.40;99.90
18898;DHT22;9581;49.484;8.556;2022-11-04T03:27:36;11.50;99.90
18898;DHT22;9581;49.484;8.556;2022-11-04T03:30:08;11.40;99.90
18898;DHT22;9581;49.484;8.556;2022-11-04T03:32:41;11.30;99.90
18898;DHT22;9581;49.484;8.556;2022-11-04T03:35:11;11.40;99.90
18898;DHT22;9581;49.484;8.556;2022-11-04T03:37:38;11.30;99.90
18898;DHT22;9581;49.484;8.556;2022-11-04T03:40:06;11.30;99.90
18898;DHT22;9581;49.484;8.556;2022-11-04T03:42:36;11.40;99.90
18898;DHT22;9581;49.484;8.556;2022-11-04T03:45:07;11.50;99.90
18898;DHT22;9581;49.484;8.556;2022-11-04T03:47:34;11.30;99.90
18898;DHT22;9581;49.484;8.556;2022-11-04T03:50:05;11.40;99.90
18898;DHT22;9581;49.484;8.556;2022-11-04T03:52:33;11.60;99.90
18898;DHT22;9581;49.484;8.556;2022-11-04T03:55:00;11.40;99.90
18898;DHT22;9581;49.484;8.556;2022-11-04T03:57:40;11.10;99.90
18898;DHT22;9581;49.484;8.556;2022-11-04T04:00:12;11.10;99.90
18898;DHT22;9581;49.484;8.556;2022-11-04T04:02:57;11.20;99.90
18898;DHT22;9581;49.484;8.556;2022-11-04T04:05:27;11.10;99.90
18898;DHT22;9581;49.484;8.556;2022-11-04T04:08:00;11.00;99.90
18898;DHT22;9581;49.484;8.556;2022-11-04T04:10:34;11.10;99.90
18898;DHT22;9581;49.484;8.556;2022-11-04T04:13:15;11.40;99.90
18898;DHT22;9581;49.484;8.556;2022-11-04T04:15:48;11.30;99.90
18898;DHT22;9581;49.484;8.556;2022-11-04T04:18:21;11.40;99.90
18898;DHT22;9581;49.484;8.556;2022-11-04T04:20:52;11.40;99.90
18898;DHT22;9581;49.484;8.556;2022-11-04T04:23:23;11.50;99.90
18898;DHT22;9581;49.484;8.556;2022-11-04T04:26:10;11.50;99.90
18898;DHT22;9581;49.484;8.556;2022-11-04T04:28:58;11.60;99.90
18898;DHT22;9581;49.484;8.556;2022-11-04T04:31:29;11.70;99.90
18898;DHT22;9581;49.484;8.556;2022-11-04T04:34:16;11.70;99.90
18898;DHT22;9581;49.484;8.556;2022-11-04T04:36:46;11.60;99.90
18898;DHT22;9581;49.484;8.556;2022-11-04T04:39:16;11.50;99.90
18898;DHT22;9581;49.484;8.556;2022-11-04T04:42:02;11.70;99.90
18898;DHT22;9581;49.484;8.556;2022-11-04T04:44:46;11.70;99.90
18898;DHT22;9581;49.484;8.556;2022-11-04T04:47:30;11.50;99.90
18898;DHT22;9581;49.484;8.556;2022-11-04T04:49:59;11.30;99.90
18898;DHT22;9581;49.484;8.556;2022-11-04T04:52:29;11.20;99.90
18898;DHT22;9581;49.484;8.556;2022-11-04T04:54:56;11.10;99.90
18898;DHT22;9581;49.484;8.556;2022-11-04T04:57:23;11.10;99.90
18898;DHT22;9581;49.484;8.556;2022-11-04T04:59:50;11.10;99.90
18898;DHT22;9581;49.484;8.556;2022-11-04T05:02:16;11.10;99.90
18898;DHT22;9581;49.484;8.556;2022-11-04T05:04:45;11.20;99.90
18898;DHT22;9581;49.484;8.556;2022-11-04T05:07:12;11.30;99.90
18898;DHT22;9581;49.484;8.556;2022-11-04T05:09:38;11.40;99.90
18898;DHT22;9581;49.484;8.556;2022-11-04T05:12:05;11.50;99.90
18898;DHT22;9581;49.484;8.556;2022-11-04T05:14:32;11.40;99.90
18898;DHT22;9581;49.484;8.556;2022-11-04T05:16:59;11.50;99.90
18898;DHT22;9581;49.484;8.556;2022-11-04T05:19:26;11.50;99.90
18898;DHT22;9581;49.484;8.556;2022-11-04T05:21:54;11.20;99.90
18898;DHT22;9581;49.484;8.556;2022-11-04T05:24:21;10.80;99.90
18898;DHT22;9581;49.484;8.556;2022-11-04T05:26:48;11.00;99.90
18898;DHT22;9581;49.484;8.556;2022-11-04T05:29:15;11.30;99.90
18898;DHT22;9581;49.484;8.556;2022-11-04T05:31:41;11.30;99.90
18898;DHT22;9581;49.484;8.556;2022-11-04T05:34:09;11.60;99.90
18898;DHT22;9581;49.484;8.556;2022-11-04T05:36:36;11.50;99.90
18898;DHT22;9581;49.484;8.556;2022-11-04T05:39:05;11.30;99.90
18898;DHT22;9581;49.484;8.556;2022-11-04T05:41:32;11.30;99.90
18898;DHT22;9581;49.484;8.556;2022-11-04T05:44:00;11.20;99.90
18898;DHT22;9581;49.484;8.556;2022-11-04T05:46:28;11.30;99.90
18898;DHT22;9581;49.484;8.556;2022-11-04T05:48:55;11.50;99.90
18898;DHT22;9581;49.484;8.556;2022-11-04T05:51:23;11.70;99.90
18898;DHT22;9581;49.484;8.556;2022-11-04T05:53:50;11.70;99.90
18898;DHT22;9581;49.484;8.556;2022-11-04T05:56:18;11.50;99.90
18898;DHT22;9581;49.484;8.556;2022-11-04T05:58:45;11.60;99.90
18898;DHT22;9581;49.484;8.556;2022-11-04T06:01:21;11.70;99.90
18898;DHT22;9581;49.484;8.556;2022-11-04T06:03:49;11.50;99.90
18898;DHT22;9581;49.484;8.556;2022-11-04T06:06:16;11.60;99.90
18898;DHT22;9581;49.484;8.556;2022-11-04T06:08:43;11.60;99.90
18898;DHT22;9581;49.484;8.556;2022-11-04T06:11:09;11.50;99.90
18898;DHT22;9581;49.484;8.556;2022-11-04T06:13:38;11.40;99.90
18898;DHT22;9581;49.484;8.556;2022-11-04T06:16:05;11.40;99.90
18898;DHT22;9581;49.484;8.556;2022-11-04T06:18:32;11.40;99.90
18898;DHT22;9581;49.484;8.556;2022-11-04T06:21:07;11.40;99.90
18898;DHT22;9581;49.484;8.556;2022-11-04T06:23:34;11.50;99.90
18898;DHT22;9581;49.484;8.556;2022-11-04T06:26:00;11.50;99.90
18898;DHT22;9581;49.484;8.556;2022-11-04T06:28:27;11.60;99.90
18898;DHT22;9581;49.484;8.556;2022-11-04T06:30:58;11.40;99.90
18898;DHT22;9581;49.484;8.556;2022-11-04T06:33:25;11.50;99.90
18898;DHT22;9581;49.484;8.556;2022-11-04T06:35:55;11.50;99.90
18898;DHT22;9581;49.484;8.556;2022-11-04T06:38:22;11.40;99.90
18898;DHT22;9581;49.484;8.556;2022-11-04T06:40:49;11.40;99.90
18898;DHT22;9581;49.484;8.556;2022-11-04T06:43:16;11.40;99.90
18898;DHT22;9581;49.484;8.556;2022-11-04T06:45:43;11.50;99.90
18898;DHT22;9581;49.484;8.556;2022-11-04T06:48:11;11.50;99.90
18898;DHT22;9581;49.484;8.556;2022-11-04T06:50:38;11.50;99.90
18898;DHT22;9581;49.484;8.556;2022-11-04T06:53:05;11.50;99.90
18898;DHT22;9581;49.484;8.556;2022-11-04T06:55:31;11.60;99.90
18898;DHT22;9581;49.484;8.556;2022-11-04T06:57:58;11.60;99.90
18898;DHT22;9581;49.484;8.556;2022-11-04T07:00:25;11.50;99.90
18898;DHT22;9581;49.484;8.556;2022-11-04T07:02:52;11.40;99.90
18898;DHT22;9581;49.484;8.556;2022-11-04T07:05:20;11.50;99.90
18898;DHT22;9581;49.484;8.556;2022-11-04T07:07:47;11.50;99.90
18898;DHT22;9581;49.484;8.556;2022-11-04T07:10:14;11.60;99.90
18898;DHT22;9581;49.484;8.556;2022-11-04T07:12:41;11.60;99.90
18898;DHT22;9581;49.484;8.556;2022-11-04T07:15:09;11.70;99.90
18898;DHT22;9581;49.484;8.556;2022-11-04T07:17:36;11.60;99.90
18898;DHT22;9581;49.484;8.556;2022-11-04T07:20:04;11.70;99.90
18898;DHT22;9581;49.484;8.556;2022-11-04T07:22:32;11.60;99.90
18898;DHT22;9581;49.484;8.556;2022-11-04T07:24:59;11.80;99.90
18898;DHT22;9581;49.484;8.556;2022-11-04T07:27:26;11.70;99.90
18898;DHT22;9581;49.484;8.556;2022-11-04T07:29:53;11.70;99.90
18898;DHT22;9581;49.484;8.556;2022-11-04T07:32:19;11.80;99.90
18898;DHT22;9581;49.484;8.556;2022-11-04T07:34:46;11.80;99.90
18898;DHT22;9581;49.484;8.556;2022-11-04T07:37:13;11.80;99.90
18898;DHT22;9581;49.484;8.556;2022-11-04T07:39:41;11.70;99.90
18898;DHT22;9581;49.484;8.556;2022-11-04T07:42:08;11.80;99.90
18898;DHT22;9581;49.484;8.556;2022-11-04T07:44:35;11.80;99.90
18898;DHT22;9581;49.484;8.556;2022-11-04T07:47:02;11.90;99.90
18898;DHT22;9581;49.484;8.556;2022-11-04T07:49:28;12.00;99.90
18898;DHT22;9581;49.484;8.556;2022-11-04T07:51:55;12.00;99.90
18898;DHT22;9581;49.484;8.556;2022-11-04T07:54:22;12.00;99.90
18898;DHT22;9581;49.484;8.556;2022-11-04T07:56:50;11.90;99.90
18898;DHT22;9581;49.484;8.556;2022-11-04T07:59:17;12.00;99.90
18898;DHT22;9581;49.484;8.556;2022-11-04T08:01:43;11.90;99.90
18898;DHT22;9581;49.484;8.556;2022-11-04T08:04:10;12.10;99.90
18898;DHT22;9581;49.484;8.556;2022-11-04T08:06:37;12.20;99.90
18898;DHT22;9581;49.484;8.556;2022-11-04T08:09:04;12.10;99.90
18898;DHT22;9581;49.484;8.556;2022-11-04T08:11:31;12.20;99.90
18898;DHT22;9581;49.484;8.556;2022-11-04T08:14:03;12.20;99.90
18898;DHT22;9581;49.484;8.556;2022-11-04T08:16:30;12.20;99.90
18898;DHT22;9581;49.484;8.556;2022-11-04T08:18:57;12.20;99.90
18898;DHT22;9581;49.484;8.556;2022-11-04T08:21:27;12.40;99.90
18898;DHT22;9581;49.484;8.556;2022-11-04T08:23:54;12.50;99.90
18898;DHT22;9581;49.484;8.556;2022-11-04T08:26:21;12.60;99.90
18898;DHT22;9581;49.484;8.556;2022-11-04T08:28:48;12.50;99.90
18898;DHT22;9581;49.484;8.556;2022-11-04T08:31:18;12.60;99.90
18898;DHT22;9581;49.484;8.556;2022-11-04T08:33:46;12.70;99.90
18898;DHT22;9581;49.484;8.556;2022-11-04T08:36:15;12.90;99.90
18898;DHT22;9581;49.484;8.556;2022-11-04T08:38:42;12.70;99.90
18898;DHT22;9581;49.484;8.556;2022-11-04T08:41:11;12.60;99.90
18898;DHT22;9581;49.484;8.556;2022-11-04T08:43:38;12.60;99.90
18898;DHT22;9581;49.484;8.556;2022-11-04T08:46:07;12.70;99.90
18898;DHT22;9581;49.484;8.556;2022-11-04T08:48:37;12.80;99.90
18898;DHT22;9581;49.484;8.556;2022-11-04T08:51:06;12.90;99.90
18898;DHT22;9581;49.484;8.556;2022-11-04T08:53:33;13.00;99.90
18898;DHT22;9581;49.484;8.556;2022-11-04T08:56:08;13.00;99.90
18898;DHT22;9581;49.484;8.556;2022-11-04T08:58:35;12.60;99.90
18898;DHT22;9581;49.484;8.556;2022-11-04T09:01:02;12.80;99.90
18898;DHT22;9581;49.484;8.556;2022-11-04T09:03:29;12.80;99.90
18898;DHT22;9581;49.484;8.556;2022-11-04T09:05:58;13.00;99.90
18898;DHT22;9581;49.484;8.556;2022-11-04T09:08:25;13.00;99.90
18898;DHT22;9581;49.484;8.556;2022-11-04T09:10:52;13.30;99.90
18898;DHT22;9581;49.484;8.556;2022-11-04T09:13:19;12.90;99.90
18898;DHT22;9581;49.484;8.556;2022-11-04T09:15:45;12.20;99.90
18898;DHT22;9581;49.484;8.556;2022-11-04T09:18:13;12.20;99.90
18898;DHT22;9581;49.484;8.556;2022-11-04T09:20:40;12.50;99.90
18898;DHT22;9581;49.484;8.556;2022-11-04T09:23:09;12.60;99.90
18898;DHT22;9581;49.484;8.556;2022-11-04T09:25:36;12.60;99.90
18898;DHT22;9581;49.484;8.556;2022-11-04T09:28:03;13.10;99.90
18898;DHT22;9581;49.484;8.556;2022-11-04T09:30:30;12.90;99.90
18898;DHT22;9581;49.484;8.556;2022-11-04T09:32:57;13.00;99.90
18898;DHT22;9581;49.484;8.556;2022-11-04T09:35:24;12.40;99.90
18898;DHT22;9581;49.484;8.556;2022-11-04T09:37:52;12.10;99.90
18898;DHT22;9581;49.484;8.556;2022-11-04T09:40:22;12.00;99.90
18898;DHT22;9581;49.484;8.556;2022-11-04T09:42:59;12.50;99.90
18898;DHT22;9581;49.484;8.556;2022-11-04T09:45:31;12.90;99.90
18898;DHT22;9581;49.484;8.556;2022-11-04T09:48:02;13.30;99.90
18898;DHT22;9581;49.484;8.556;2022-11-04T09:50:43;13.40;99.90
18898;DHT22;9581;49.484;8.556;2022-11-04T09:53:16;13.40;99.90
18898;DHT22;9581;49.484;8.556;2022-11-04T09:55:50;13.80;99.90
18898;DHT22;9581;49.484;8.556;2022-11-04T09:58:18;13.90;99.90
18898;DHT22;9581;49.484;8.556;2022-11-04T10:00:50;13.90;99.90
18898;DHT22;9581;49.484;8.556;2022-11-04T10:03:40;13.70;99.90
18898;DHT22;9581;49.484;8.556;2022-11-04T10:06:23;13.70;99.90
18898;DHT22;9581;49.484;8.556;2022-11-04T10:09:21;13.70;99.90
18898;DHT22;9581;49.484;8.556;2022-11-04T10:12:01;13.60;99.90
18898;DHT22;9581;49.484;8.556;2022-11-04T10:14:48;13.40;99.90
18898;DHT22;9581;49.484;8.556;2022-11-04T10:17:36;13.10;99.90
18898;DHT22;9581;49.484;8.556;2022-11-04T10:20:18;12.70;99.90
18898;DHT22;9581;49.484;8.556;2022-11-04T10:22:55;12.30;99.90
18898;DHT22;9581;49.484;8.556;2022-11-04T10:25:27;12.50;99.90
18898;DHT22;9581;49.484;8.556;2022-11-04T10:27:57;12.50;99.90
18898;DHT22;9581;49.484;8.556;2022-11-04T10:30:25;12.50;99.90
18898;DHT22;9581;49.484;8.556;2022-11-04T10:33:00;12.60;99.90
18898;DHT22;9581;49.484;8.556;2022-11-04T10:35:33;12.40;99.90
18898;DHT22;9581;49.484;8.556;2022-11-04T10:38:15;12.80;99.90
18898;DHT22;9581;49.484;8.556;2022-11-04T10:40:48;13.20;99.90
18898;DHT22;9581;49.484;8.556;2022-11-04T10:43:21;13.50;99.90
18898;DHT22;9581;49.484;8.556;2022-11-04T10:46:00;13.60;99.90
18898;DHT22;9581;49.484;8.556;2022-11-04T10:48:34;14.00;99.90
18898;DHT22;9581;49.484;8.556;2022-11-04T10:51:03;14.30;99.90
18898;DHT22;9581;49.484;8.556;2022-11-04T10:53:32;14.50;99.90
18898;DHT22;9581;49.484;8.556;2022-11-04T10:56:02;14.40;99.90
18898;DHT22;9581;49.484;8.556;2022-11-04T10:58:35;14.40;99.90
18898;DHT22;9581;49.484;8.556;2022-11-04T11:01:25;14.40;99.90
18898;DHT22;9581;49.484;8.556;2022-11-04T11:03:53;14.00;99.90
18898;DHT22;9581;49.484;8.556;2022-11-04T11:06:24;14.30;99.90
18898;DHT22;9581;49.484;8.556;2022-11-04T11:08:54;14.10;99.90
18898;DHT22;9581;49.484;8.556;2022-11-04T11:11:41;14.60;99.90
18898;DHT22;9581;49.484;8.556;2022-11-04T11:14:19;14.50;99.90
18898;DHT22;9581;49.484;8.556;2022-11-04T11:16:57;14.60;99.90
18898;DHT22;9581;49.484;8.556;2022-11-04T11:19:45;15.00;99.90
18898;DHT22;9581;49.484;8.556;2022-11-04T11:22:28;15.00;99.90
18898;DHT22;9581;49.484;8.556;2022-11-04T11:25:21;15.00;99.90
18898;DHT22;9581;49.484;8.556;2022-11-04T11:27:51;13.70;99.90
18898;DHT22;9581;49.484;8.556;2022-11-04T11:30:22;14.20;99.90
18898;DHT22;9581;49.484;8.556;2022-11-04T11:32:52;14.10;99.90
18898;DHT22;9581;49.484;8.556;2022-11-04T11:35:22;13.80;99.90
18898;DHT22;9581;49.484;8.556;2022-11-04T11:37:51;14.30;99.90
18898;DHT22;9581;49.484;8.556;2022-11-04T11:40:26;14.90;99.90
18898;DHT22;9581;49.484;8.556;2022-11-04T11:42:54;15.10;99.90
18898;DHT22;9581;49.484;8.556;2022-11-04T11:45:24;15.10;99.90
18898;DHT22;9581;49.484;8.556;2022-11-04T11:47:52;15.10;99.90
18898;DHT22;9581;49.484;8.556;2022-11-04T11:50:22;15.00;99.90
18898;DHT22;9581;49.484;8.556;2022-11-04T11:53:12;14.20;99.90
18898;DHT22;9581;49.484;8.556;2022-11-04T11:55:43;14.30;99.90
18898;DHT22;9581;49.484;8.556;2022-11-04T11:58:21;14.60;99.90
18898;DHT22;9581;49.484;8.556;2022-11-04T12:00:57;14.70;99.90
18898;DHT22;9581;49.484;8.556;2022-11-04T12:03:29;14.30;99.90
18898;DHT22;9581;49.484;8.556;2022-11-04T12:06:10;14.30;99.90
18898;DHT22;9581;49.484;8.556;2022-11-04T12:09:07;14.50;99.90
18898;DHT22;9581;49.484;8.556;2022-11-04T12:11:50;13.60;99.90
18898;DHT22;9581;49.484;8.556;2022-11-04T12:14:26;13.60;99.90
18898;DHT22;9581;49.484;8.556;2022-11-04T12:17:04;13.10;99.90
18898;DHT22;9581;49.484;8.556;2022-11-04T12:19:55;13.60;99.90
18898;DHT22;9581;49.484;8.556;2022-11-04T12:22:34;13.40;99.90
18898;DHT22;9581;49.484;8.556;2022-11-04T12:25:10;14.00;99.90
18898;DHT22;9581;49.484;8.556;2022-11-04T12:27:45;14.40;99.90
18898;DHT22;9581;49.484;8.556;2022-11-04T12:30:18;14.10;99.90
18898;DHT22;9581;49.484;8.556;2022-11-04T12:33:04;14.60;99.90
18898;DHT22;9581;49.484;8.556;2022-11-04T12:35:45;14.10;99.90
18898;DHT22;9581;49.484;8.556;2022-11-04T12:38:28;14.70;99.90
18898;DHT22;9581;49.484;8.556;2022-11-04T12:41:02;15.00;99.90
18898;DHT22;9581;49.484;8.556;2022-11-04T12:43:39;14.60;99.90
18898;DHT22;9581;49.484;8.556;2022-11-04T12:46:14;14.20;99.90
18898;DHT22;9581;49.484;8.556;2022-11-04T12:51:56;14.90;99.90
18898;DHT22;9581;49.484;8.556;2022-11-04T12:54:45;14.60;99.90
18898;DHT22;9581;49.484;8.556;2022-11-04T12:57:21;13.90;99.90
18898;DHT22;9581;49.484;8.556;2022-11-04T13:00:02;14.60;99.90
18898;DHT22;9581;49.484;8.556;2022-11-04T13:02:34;14.70;99.90
18898;DHT22;9581;49.484;8.556;2022-11-04T13:05:14;14.20;99.90
18898;DHT22;9581;49.484;8.556;2022-11-04T13:07:48;14.30;99.90
18898;DHT22;9581;49.484;8.556;2022-11-04T13:10:19;14.80;99.90
18898;DHT22;9581;49.484;8.556;2022-11-04T13:12:49;15.00;99.90
18898;DHT22;9581;49.484;8.556;2022-11-04T13:15:20;15.10;99.90
18898;DHT22;9581;49.484;8.556;2022-11-04T13:17:50;14.10;99.90
18898;DHT22;9581;49.484;8.556;2022-11-04T13:20:26;14.00;99.90
18898;DHT22;9581;49.484;8.556;2022-11-04T13:22:58;13.80;99.90
18898;DHT22;9581;49.484;8.556;2022-11-04T13:25:29;13.70;99.90
18898;DHT22;9581;49.484;8.556;2022-11-04T13:27:58;13.90;99.90
18898;DHT22;9581;49.484;8.556;2022-11-04T13:30:32;14.70;99.90
18898;DHT22;9581;49.484;8.556;2022-11-04T13:33:07;15.00;99.90
18898;DHT22;9581;49.484;8.556;2022-11-04T13:35:45;15.40;99.90
18898;DHT22;9581;49.484;8.556;2022-11-04T13:38:15;15.40;99.90
18898;DHT22;9581;49.484;8.556;2022-11-04T13:40:51;15.30;99.90
18898;DHT22;9581;49.484;8.556;2022-11-04T13:43:24;14.40;99.90
18898;DHT22;9581;49.484;8.556;2022-11-04T13:46:18;14.80;99.90
18898;DHT22;9581;49.484;8.556;2022-11-04T13:48:55;15.20;99.90
18898;DHT22;9581;49.484;8.556;2022-11-04T13:51:34;15.40;99.90
18898;DHT22;9581;49.484;8.556;2022-11-04T13:54:01;15.20;99.90
18898;DHT22;9581;49.484;8.556;2022-11-04T13:56:31;14.90;99.90
18898;DHT22;9581;49.484;8.556;2022-11-04T13:59:03;14.30;99.90
18898;DHT22;9581;49.484;8.556;2022-11-04T14:01:31;14.60;99.90
18898;DHT22;9581;49.484;8.556;2022-11-04T14:04:23;14.30;99.90
18898;DHT22;9581;49.484;8.556;2022-11-04T14:06:55;14.50;99.90
18898;DHT22;9581;49.484;8.556;2022-11-04T14:12:30;14.50;99.90
18898;DHT22;9581;49.484;8.556;2022-11-04T14:18:01;14.70;99.90
18898;DHT22;9581;49.484;8.556;2022-11-04T14:20:32;14.60;99.90
18898;DHT22;9581;49.484;8.556;2022-11-04T14:23:03;14.50;99.90
18898;DHT22;9581;49.484;8.556;2022-11-04T14:25:34;14.60;99.90
18898;DHT22;9581;49.484;8.556;2022-11-04T14:28:16;14.20;99.90
18898;DHT22;9581;49.484;8.556;2022-11-04T14:30:47;14.30;99.90
18898;DHT22;9581;49.484;8.556;2022-11-04T14:33:34;13.90;99.90
18898;DHT22;9581;49.484;8.556;2022-11-04T14:36:33;14.10;99.90
18898;DHT22;9581;49.484;8.556;2022-11-04T14:39:06;13.60;99.90
18898;DHT22;9581;49.484;8.556;2022-11-04T14:41:54;13.50;99.90
18898;DHT22;9581;49.484;8.556;2022-11-04T14:44:41;13.40;99.90
18898;DHT22;9581;49.484;8.556;2022-11-04T14:47:17;13.40;99.90
18898;DHT22;9581;49.484;8.556;2022-11-04T14:49:47;13.60;99.90
18898;DHT22;9581;49.484;8.556;2022-11-04T14:52:20;13.90;99.90
18898;DHT22;9581;49.484;8.556;2022-11-04T14:54:48;14.10;99.90
18898;DHT22;9581;49.484;8.556;2022-11-04T14:57:18;14.20;99.90
18898;DHT22;9581;49.484;8.556;2022-11-04T14:59:46;13.70;99.90
18898;DHT22;9581;49.484;8.556;2022-11-04T15:02:17;13.40;99.90
18898;DHT22;9581;49.484;8.556;2022-11-04T15:04:48;13.10;99.90
18898;DHT22;9581;49.484;8.556;2022-11-04T15:07:25;13.00;99.90
18898;DHT22;9581;49.484;8.556;2022-11-04T15:09:59;12.70;99.90
18898;DHT22;9581;49.484;8.556;2022-11-04T15:12:27;12.70;99.90
18898;DHT22;9581;49.484;8.556;2022-11-04T15:15:25;12.60;99.90
18898;DHT22;9581;49.484;8.556;2022-11-04T15:17:52;12.30;99.90
18898;DHT22;9581;49.484;8.556;2022-11-04T15:20:23;12.40;99.90
18898;DHT22;9581;49.484;8.556;2022-11-04T15:22:50;12.60;99.90
18898;DHT22;9581;49.484;8.556;2022-11-04T15:25:21;12.80;99.90
18898;DHT22;9581;49.484;8.556;2022-11-04T15:27:48;12.80;99.90
18898;DHT22;9581;49.484;8.556;2022-11-04T15:30:19;13.00;99.90
18898;DHT22;9581;49.484;8.556;2022-11-04T15:32:56;13.00;99.90
18898;DHT22;9581;49.484;8.556;2022-11-04T15:35:25;12.60;99.90
18898;DHT22;9581;49.484;8.556;2022-11-04T15:37:54;12.60;99.90
18898;DHT22;9581;49.484;8.556;2022-11-04T15:40:24;12.80;99.90
18898;DHT22;9581;49.484;8.556;2022-11-04T15:42:52;12.80;99.90
18898;DHT22;9581;49.484;8.556;2022-11-04T15:45:28;12.60;99.90
18898;DHT22;9581;49.484;8.556;2022-11-04T15:48:24;12.60;99.90
18898;DHT22;9581;49.484;8.556;2022-11-04T15:50:53;12.60;99.90
18898;DHT22;9581;49.484;8.556;2022-11-04T15:53:23;12.70;99.90
18898;DHT22;9581;49.484;8.556;2022-11-04T15:55:51;12.70;99.90
18898;DHT22;9581;49.484;8.556;2022-11-04T15:58:18;12.50;99.90
18898;DHT22;9581;49.484;8.556;2022-11-04T16:00:51;12.50;99.90
18898;DHT22;9581;49.484;8.556;2022-11-04T16:03:19;12.60;99.90
18898;DHT22;9581;49.484;8.556;2022-11-04T16:06:00;12.60;99.90
18898;DHT22;9581;49.484;8.556;2022-11-04T16:08:29;12.60;99.90
18898;DHT22;9581;49.484;8.556;2022-11-04T16:11:14;12.70;99.90
18898;DHT22;9581;49.484;8.556;2022-11-04T16:13:42;12.70;99.90
18898;DHT22;9581;49.484;8.556;2022-11-04T16:16:21;12.80;99.90
18898;DHT22;9581;49.484;8.556;2022-11-04T16:18:50;12.90;99.90
18898;DHT22;9581;49.484;8.556;2022-11-04T16:21:24;12.60;99.90
18898;DHT22;9581;49.484;8.556;2022-11-04T16:23:55;12.70;99.90
18898;DHT22;9581;49.484;8.556;2022-11-04T16:26:26;12.70;99.90
18898;DHT22;9581;49.484;8.556;2022-11-04T16:28:55;12.60;99.90